Chickering American River Reserve, California Weather observations

Data are for 10 minute period ending at time listed.
 Day   Time   Solar   Ave.   Ave.  Ave.  Vector  Max.   Baro.   Total    
  of    of     Rad.   Air    Rel.  Wind   Wind   Wind  Press.  Precip.   
Year   Day            Temp.  Hum.  Speed  Dir.   Gust                    
2015   (PST)  Kw/m2    F      %     mph   deg.    mph    mb.     in.     
-------------------------------------------------------------------------
  60   11:10   0.75   37.7    62    3.7    82    10.4   815.0    0.00 
  60   11:20   0.58   38.7    60    3.3    82     8.0   815.1    0.00 
  60   11:30   1.03   40.0    58    3.4    80    11.3   815.1    0.00 
  60   11:40   1.02   40.1    59    3.8    58    10.3   815.1    0.00 
  60   11:50   1.07   40.2    56    4.1    82    11.8   815.2    0.00 
  60   12:00   1.02   40.4    56    4.2    81    12.1   815.1    0.00 
  60   12:10   1.01   39.9    55    3.4    77    12.4   815.1    0.00 
  60   12:20   0.90   40.5    55    3.0    86     8.8   815.0    0.00 
  60   12:30   0.66   39.3    56    3.0    61     8.9   814.9    0.00 
  60   12:40   0.83   40.8    57    2.8   149    11.1   814.8    0.00 
  60   12:50   0.82   39.7    59    2.6   136     7.4   814.7    0.00 
  60   13:00   0.86   40.9    58    2.8    85     8.7   814.6    0.00 
  60   13:10   0.81   40.1    58    3.1    85    13.6   814.4    0.00 
  60   13:20   0.78   39.3    62    3.9    63    13.4   814.2    0.00 
  60   13:30   0.77   39.3    58    3.6    80    11.6   814.1    0.00 
  60   13:40   0.77   39.3    57    3.8    67    10.8   814.1    0.00 
  60   13:50   0.78   38.6    57    3.9   103    10.8   814.1    0.00 
  60   14:00   0.67   38.9    57    3.7    72    12.9   814.1    0.00 
  60   14:10   0.68   39.1    57    2.3   124     9.2   814.0    0.00 
  60   14:20   0.66   38.6    55    4.1    94    11.8   814.0    0.00 
  60   14:30   0.63   38.3    57    3.2    64    13.0   814.0    0.00 
  60   14:40   0.60   37.9    58    2.4   116     9.1   813.9    0.00 
  60   14:50   0.19   37.3    60    4.1    67    13.2   813.7    0.00 
  60   15:00   0.09   37.4    59    3.6    58    14.0   813.6    0.00 
  60   15:10   0.16   37.2    57    4.4    72    16.4   813.6    0.00 
  60   15:20   0.49   37.5    57    2.3   163     7.6   813.6    0.00 
  60   15:30   0.38   36.5    58    1.9   156     6.0   813.7    0.00 
  60   15:40   0.06   36.1    59    2.7   146    10.5   813.7    0.00 
  60   15:50   0.05   35.5    61    2.8   161     7.9   813.7    0.00 
  60   16:00   0.03   35.1    62    2.4   154     8.6   813.6    0.00 
  60   16:10   0.04   34.7    65    2.5   176     7.8   813.5    0.00 
  60   16:20   0.03   34.6    62    2.4   147     8.5   813.5    0.00 
  60   16:30   0.02   34.6    63    2.9    87    10.0   813.5    0.00 
  60   16:40   0.01   34.1    66    2.1    84     8.1   813.5    0.00 
  60   16:50   0.01   33.7    66    2.2   120     8.5   813.4    0.00 
  60   17:00   0.01   33.6    65    1.4   129     6.5   813.3    0.00 
  60   17:10   0.01   33.5    64    1.8   143     7.4   813.3    0.00 
  60   17:20   0.01   33.4    64    1.9    97     6.6   813.3    0.00 
  60   17:30   0.00   33.2    64    3.0   111     8.3   813.2    0.00 
  60   17:40   0.00   32.7    68    1.2    93     5.8   813.2    0.00 
  60   17:50   0.00   32.2    66    1.3    84     4.2   813.2    0.00 
  60   18:00   0.00   32.2    67    1.4    52     5.6   813.3    0.00 
  60   18:10   0.00   31.7    68    1.5    67     5.1   813.4    0.00 
  60   18:20   0.00   31.2    71    0.2    68     1.8   813.3    0.00 
  60   18:30   0.00   30.2    74    0.3    46     2.0   813.3    0.00 
  60   18:40   0.00   29.6    76    0.4    70     1.8   813.3    0.00 
  60   18:50   0.00   29.1    81    0.2   183     1.3   813.3    0.00 
  60   19:00   0.00   28.4    88    1.0   218     1.8   813.3    0.00 
  60   19:10   0.00   27.9    88    1.4   220     2.3   813.3    0.00 
  60   19:20   0.00   27.5    88    1.4   214     2.6   813.2    0.00 
  60   19:30   0.00   27.2    89    1.2   194     2.2   813.2    0.00 
  60   19:40   0.00   26.9    90    0.6   198     1.5   813.1    0.00 
  60   19:50   0.00   26.8    90    1.2   209     2.7   813.1    0.00 
  60   20:00   0.00   26.5    90    0.9   216     2.0   813.0    0.00 
  60   20:10   0.00   26.3    90    1.2   216     2.0   812.9    0.00 
  60   20:20   0.00   26.1    90    0.9   216     1.6   812.9    0.00 
  60   20:30   0.00   25.9    90    0.7   221     1.6   812.9    0.00 
  60   20:40   0.00   25.6    90    0.3   325     2.2   812.9    0.00 
  60   20:50   0.00   25.6    89    1.9   224     3.6   812.9    0.00 
  60   21:00   0.00   25.1    90    1.5   216     2.4   812.8    0.00 
  60   21:10   0.00   24.7    90    1.9   206     2.6   812.7    0.00 
  60   21:20   0.00   24.1    91    1.9   213     2.9   812.6    0.00 
  60   21:30   0.00   24.2    92    1.8   210     2.6   812.5    0.00 
  60   21:40   0.00   23.7    92    1.7   204     2.5   812.4    0.00 
  60   21:50   0.00   23.4    93    1.9   212     2.9   812.3    0.00 
  60   22:00   0.00   23.2    92    1.6   205     2.9   812.3    0.00 
  60   22:10   0.00   22.6    92    1.7   194     2.6   812.3    0.00 
  60   22:20   0.00   22.2    93    1.7   193     2.6   812.2    0.00 
  60   22:30   0.00   22.1    94    1.6   210     2.6   812.1    0.00 
  60   22:40   0.00   22.0    94    1.4   185     2.3   812.1    0.00 
  60   22:50   0.00   21.6    94    1.2   180     2.9   812.0    0.00 
  60   23:00   0.00   21.4    95    0.9   201     2.3   811.9    0.00 
  60   23:10   0.00   21.4    96    1.7   202     2.9   811.9    0.00 
  60   23:20   0.00   21.0    95    1.0   180     2.0   811.9    0.00 
  60   23:30   0.00   21.0    96    1.4   210     2.0   811.8    0.00 
  60   23:40   0.00   21.3    96    1.3   217     2.0   811.8    0.00 
  60   23:50   0.00   20.8    94    1.6   177     3.0   811.8    0.00 
  61    0:00   0.00   20.7    96    1.4   210     2.3   811.6    0.00 
  61    0:10   0.00   20.6    95    1.5   197     2.7   811.5    0.00 
  61    0:20   0.00   20.4    95    1.0   176     2.2   811.4    0.00 
  61    0:30   0.00   20.1    95    1.2   185     2.3   811.3    0.00 
  61    0:40   0.00   20.2    96    1.9   201     2.6   811.2    0.00 
  61    0:50   0.00   20.6    96    1.2   193     1.9   811.1    0.00 
  61    1:00   0.00   20.9    95    1.5   184     2.3   811.0    0.00 
  61    1:10   0.00   21.2    95    1.4   197     2.1   810.9    0.00 
  61    1:20   0.00   21.4    94    0.9   185     1.9   810.8    0.00 
  61    1:30   0.00   21.6    95    0.2   172     1.5   810.6    0.00 
  61    1:40   0.00   22.4    95    1.7   223     2.4   810.5    0.00 
  61    1:50   0.00   22.7    94    1.7   222     2.6   810.3    0.00 
  61    2:00   0.00   22.7    93    1.8   196     2.4   810.2    0.00 
  61    2:10   0.00   22.6    94    1.3   180     1.6   810.2    0.00 
  61    2:20   0.00   22.5    94    0.3   161     1.5   809.9    0.00 
  61    2:30   0.00   22.7    96    0.0   302     0.3   809.7    0.00 
  61    2:40   0.00   22.7    95    1.2   201     2.8   809.6    0.00 
  61    2:50   0.00   22.4    95    1.1   225     1.9   809.5    0.00 
  61    3:00   0.00   22.4    95    0.9   183     2.0   809.4    0.00 
  61    3:10   0.00   22.4    95    1.2   213     2.2   809.3    0.00 
  61    3:20   0.00   23.1    95    1.0   198     1.9   809.2    0.00 
  61    3:30   0.00   23.2    94    0.9   214     1.7   809.2    0.00 
  61    3:40   0.00   23.6    94    0.7   202     1.9   809.1    0.00 
  61    3:50   0.00   23.7    94    0.4   185     1.7   809.0    0.00 
  61    4:00   0.00   23.8    94    0.9   189     2.2   808.9    0.00 
  61    4:10   0.00   24.3    94    0.9   247     1.4   808.9    0.00 
  61    4:20   0.00   25.0    93    0.9   213     3.0   808.8    0.00 
  61    4:30   0.00   25.0    94    0.8   195     2.1   808.6    0.00 
  61    4:40   0.00   25.1    95    0.5   208     1.5   808.7    0.00 
  61    4:50   0.00   25.4    95    1.0   204     1.8   808.6    0.00 
  61    5:00   0.00   25.6    95    0.2   242     1.3   808.5    0.00 
  61    5:10   0.00   25.9    96    0.5   228     1.8   808.4    0.00 
  61    5:20   0.00   26.2    96    0.7   225     1.8   808.4    0.00 
  61    5:30   0.00   26.5    95    0.4   236     1.8   808.4    0.00 
  61    5:40   0.00   26.8    95    0.3   220     1.4   808.3    0.00 
  61    5:50   0.00   26.9    95    0.2   225     1.5   808.3    0.00 
  61    6:00   0.00   27.2    95    0.2   263     1.1   808.2    0.00 
  61    6:10   0.00   27.2    95    0.0   184     0.4   808.2    0.00 
  61    6:20   0.00   27.5    95    0.4   272     1.6   808.2    0.00 
  61    6:30   0.00   27.7    94    0.6   187     1.8   808.2    0.00 
  61    6:40   0.00   27.4    95    0.1   176     1.1   808.2    0.00 
  61    6:50   0.00   27.6    96    0.0     0     0.0   808.2    0.00 
  61    7:00   0.00   27.7    96    0.0   312     0.9   808.2    0.00 
  61    7:10   0.00   28.0    95    0.1    45     1.0   808.2    0.00 
  61    7:20   0.00   27.9    95    0.0     0     0.0   808.2    0.00 
  61    7:30   0.01   28.0    95    0.5   268     1.4   808.2    0.00 
  61    7:40   0.02   28.4    95    0.2   242     1.0   808.2    0.00 
  61    7:50   0.04   29.0    93    0.2   305     0.9   808.2    0.00 
  61    8:00   0.06   30.1    91    0.0   330     0.9   808.2    0.00 
  61    8:10   0.07   32.0    86    0.3    47     1.5   808.3    0.00 
  61    8:20   0.06   32.3    84    0.2    77     1.8   808.3    0.00 
  61    8:30   0.08   33.2    84    0.8    67     1.8   808.4    0.00 
  61    8:40   0.07   32.6    86    1.3    76     3.3   808.4    0.00 
  61    8:50   0.06   32.3    85    1.2    52     2.7   808.4    0.00 
  61    9:00   0.10   33.0    84    0.5    62     2.0   808.6    0.00 
  61    9:10   0.33   34.3    77    1.3    98     6.4   808.6    0.00 
  61    9:20   0.66   36.4    71    1.7    84     4.6   808.5    0.00 
  61    9:30   0.21   37.2    68    1.7   147     5.6   808.6    0.00 
  61    9:40   0.08   33.9    82    0.6   177     2.6   808.7    0.00 
  61    9:50   0.09   32.4    88    1.2    25     3.5   808.8    0.00 
  61   10:00   0.14   32.2    91    1.5    42     3.0   808.8    0.00 
  61   10:10   0.10   32.3    90    1.1    38     3.4   808.8    0.00 
  61   10:20   0.10   32.1    88    1.0    64     2.0   808.9    0.00 
  61   10:30   0.08   32.3    88    0.6    50     3.2   808.9    0.00 
  61   10:40   0.05   32.3    88    0.4    49     1.5   809.0    0.00 
  61   10:50   0.07   31.8    91    0.9    41     2.4   809.0    0.00 
  61   11:00   0.29   33.1    88    1.4    60     3.4   809.0    0.00 

Return to Chickering American River Reserve graphs page.


Western Regional Climate Center,wrcc@dri.edu